sensor_id;sensor_type;location;lat;lon;timestamp;pressure;altitude;pressure_sealevel;temperature;humidity
54854;BME280;40747;49.480;8.658;2023-07-22T00:01:30;100194.84;;;18.50;70.15
54854;BME280;40747;49.480;8.658;2023-07-22T00:03:56;100203.28;;;18.57;70.11
54854;BME280;40747;49.480;8.658;2023-07-22T00:06:21;100207.88;;;18.55;70.28
54854;BME280;40747;49.480;8.658;2023-07-22T00:08:47;100199.78;;;18.56;70.00
54854;BME280;40747;49.480;8.658;2023-07-22T00:11:12;100203.94;;;18.60;69.98
54854;BME280;40747;49.480;8.658;2023-07-22T00:13:37;100201.06;;;18.36;70.84
54854;BME280;40747;49.480;8.658;2023-07-22T00:16:02;100207.00;;;18.27;70.93
54854;BME280;40747;49.480;8.658;2023-07-22T00:18:29;100206.91;;;18.28;71.05
54854;BME280;40747;49.480;8.658;2023-07-22T00:20:56;100218.78;;;18.10;71.15
54854;BME280;40747;49.480;8.658;2023-07-22T00:23:21;100211.78;;;18.22;70.68
54854;BME280;40747;49.480;8.658;2023-07-22T00:25:47;100210.47;;;18.14;71.43
54854;BME280;40747;49.480;8.658;2023-07-22T00:28:13;100215.06;;;17.98;71.54
54854;BME280;40747;49.480;8.658;2023-07-22T00:30:38;100215.06;;;17.98;71.94
54854;BME280;40747;49.480;8.658;2023-07-22T00:33:04;100218.38;;;18.01;71.78
54854;BME280;40747;49.480;8.658;2023-07-22T00:35:29;100219.91;;;17.91;72.05
54854;BME280;40747;49.480;8.658;2023-07-22T00:37:55;100219.91;;;17.91;72.33
54854;BME280;40747;49.480;8.658;2023-07-22T00:40:21;100202.22;;;18.05;71.66
54854;BME280;40747;49.480;8.658;2023-07-22T00:42:47;100203.16;;;18.04;71.53
54854;BME280;40747;49.480;8.658;2023-07-22T00:45:13;100196.56;;;18.09;71.41
54854;BME280;40747;49.480;8.658;2023-07-22T00:47:39;100169.75;;;17.98;71.64
54854;BME280;40747;49.480;8.658;2023-07-22T00:50:06;100191.91;;;18.13;71.26
54854;BME280;40747;49.480;8.658;2023-07-22T00:52:33;100190.13;;;18.13;71.52
54854;BME280;40747;49.480;8.658;2023-07-22T00:54:59;100189.19;;;18.00;72.32
54854;BME280;40747;49.480;8.658;2023-07-22T00:57:25;100196.41;;;17.83;72.83
54854;BME280;40747;49.480;8.658;2023-07-22T00:59:50;100190.91;;;17.87;72.74
54854;BME280;40747;49.480;8.658;2023-07-22T01:02:16;100190.03;;;17.86;72.76
54854;BME280;40747;49.480;8.658;2023-07-22T01:04:42;100191.06;;;17.83;72.83
54854;BME280;40747;49.480;8.658;2023-07-22T01:07:08;100176.34;;;17.63;72.75
54854;BME280;40747;49.480;8.658;2023-07-22T01:09:37;100187.00;;;17.78;72.85
54854;BME280;40747;49.480;8.658;2023-07-22T01:12:03;100191.56;;;17.76;72.67
54854;BME280;40747;49.480;8.658;2023-07-22T01:14:31;100187.97;;;17.62;72.86
54854;BME280;40747;49.480;8.658;2023-07-22T01:16:56;100186.41;;;17.58;73.19
54854;BME280;40747;49.480;8.658;2023-07-22T01:19:21;100187.50;;;17.70;73.10
54854;BME280;40747;49.480;8.658;2023-07-22T01:21:48;100190.88;;;17.72;73.15
54854;BME280;40747;49.480;8.658;2023-07-22T01:24:15;100189.94;;;17.73;72.97
54854;BME280;40747;49.480;8.658;2023-07-22T01:26:41;100192.25;;;17.65;73.44
54854;BME280;40747;49.480;8.658;2023-07-22T01:29:07;100190.22;;;17.68;73.04
54854;BME280;40747;49.480;8.658;2023-07-22T01:31:34;100189.56;;;17.79;72.95
54854;BME280;40747;49.480;8.658;2023-07-22T01:34:01;100191.28;;;17.80;72.75
54854;BME280;40747;49.480;8.658;2023-07-22T01:36:26;100179.66;;;17.67;72.86
54854;BME280;40747;49.480;8.658;2023-07-22T01:38:51;100182.34;;;17.81;72.96
54854;BME280;40747;49.480;8.658;2023-07-22T01:41:16;100175.88;;;17.71;73.29
54854;BME280;40747;49.480;8.658;2023-07-22T01:43:42;100176.16;;;17.66;73.31
54854;BME280;40747;49.480;8.658;2023-07-22T01:46:07;100173.22;;;17.71;73.35
54854;BME280;40747;49.480;8.658;2023-07-22T01:48:32;100167.41;;;17.64;73.18
54854;BME280;40747;49.480;8.658;2023-07-22T01:50:58;100178.94;;;17.65;73.04
54854;BME280;40747;49.480;8.658;2023-07-22T01:53:23;100182.22;;;17.68;73.25
54854;BME280;40747;49.480;8.658;2023-07-22T01:55:48;100176.91;;;17.68;73.38
54854;BME280;40747;49.480;8.658;2023-07-22T01:58:13;100172.63;;;17.66;73.64
54854;BME280;40747;49.480;8.658;2023-07-22T02:00:39;100156.94;;;17.61;73.52
54854;BME280;40747;49.480;8.658;2023-07-22T02:03:04;100170.06;;;17.64;73.39
54854;BME280;40747;49.480;8.658;2023-07-22T02:05:29;100168.34;;;17.63;73.73
54854;BME280;40747;49.480;8.658;2023-07-22T02:07:55;100165.63;;;17.65;73.55
54854;BME280;40747;49.480;8.658;2023-07-22T02:10:21;100175.50;;;17.48;73.91
54854;BME280;40747;49.480;8.658;2023-07-22T02:12:46;100176.34;;;17.49;73.63
54854;BME280;40747;49.480;8.658;2023-07-22T02:15:12;100174.00;;;17.44;74.09
54854;BME280;40747;49.480;8.658;2023-07-22T02:17:38;100182.16;;;17.41;74.56
54854;BME280;40747;49.480;8.658;2023-07-22T02:20:04;100186.44;;;17.29;75.46
54854;BME280;40747;49.480;8.658;2023-07-22T02:22:31;100173.00;;;17.16;76.27
54854;BME280;40747;49.480;8.658;2023-07-22T02:24:57;100177.66;;;17.13;76.49
54854;BME280;40747;49.480;8.658;2023-07-22T02:27:23;100168.31;;;16.91;76.80
54854;BME280;40747;49.480;8.658;2023-07-22T02:29:49;100184.38;;;17.04;76.94
54854;BME280;40747;49.480;8.658;2023-07-22T02:32:14;100168.97;;;16.95;76.77
54854;BME280;40747;49.480;8.658;2023-07-22T02:34:39;100186.84;;;17.07;76.83
54854;BME280;40747;49.480;8.658;2023-07-22T02:37:05;100196.03;;;17.17;78.35
54854;BME280;40747;49.480;8.658;2023-07-22T02:39:30;100195.16;;;17.31;79.20
54854;BME280;40747;49.480;8.658;2023-07-22T02:41:55;100205.53;;;17.50;79.17
54854;BME280;40747;49.480;8.658;2023-07-22T02:44:20;100222.50;;;17.64;81.52
54854;BME280;40747;49.480;8.658;2023-07-22T02:46:46;100228.66;;;17.64;82.59
54854;BME280;40747;49.480;8.658;2023-07-22T02:49:12;100237.06;;;17.73;84.52
54854;BME280;40747;49.480;8.658;2023-07-22T02:51:37;100219.53;;;17.68;83.41
54854;BME280;40747;49.480;8.658;2023-07-22T02:54:02;100225.34;;;17.75;83.68
54854;BME280;40747;49.480;8.658;2023-07-22T02:56:28;100225.53;;;17.43;86.48
54854;BME280;40747;49.480;8.658;2023-07-22T02:58:54;100228.72;;;17.34;87.06
54854;BME280;40747;49.480;8.658;2023-07-22T03:01:19;100223.81;;;17.42;88.03
54854;BME280;40747;49.480;8.658;2023-07-22T03:03:44;100219.91;;;17.48;89.00
54854;BME280;40747;49.480;8.658;2023-07-22T03:06:10;100218.09;;;17.48;92.97
54854;BME280;40747;49.480;8.658;2023-07-22T03:08:35;100212.75;;;17.34;90.76
54854;BME280;40747;49.480;8.658;2023-07-22T03:11:01;100219.53;;;17.40;89.82
54854;BME280;40747;49.480;8.658;2023-07-22T03:13:27;100199.06;;;17.26;90.09
54854;BME280;40747;49.480;8.658;2023-07-22T03:15:55;100223.59;;;17.16;89.83
54854;BME280;40747;49.480;8.658;2023-07-22T03:18:21;100215.72;;;16.99;91.43
54854;BME280;40747;49.480;8.658;2023-07-22T03:20:46;100217.38;;;16.85;91.41
54854;BME280;40747;49.480;8.658;2023-07-22T03:23:11;100217.06;;;16.60;92.44
54854;BME280;40747;49.480;8.658;2023-07-22T03:25:37;100217.75;;;16.63;93.12
54854;BME280;40747;49.480;8.658;2023-07-22T03:28:03;100208.63;;;16.37;94.81
54854;BME280;40747;49.480;8.658;2023-07-22T03:30:29;100217.22;;;16.10;95.16
54854;BME280;40747;49.480;8.658;2023-07-22T03:32:55;100210.59;;;16.01;95.66
54854;BME280;40747;49.480;8.658;2023-07-22T03:35:20;100203.75;;;15.97;97.18
54854;BME280;40747;49.480;8.658;2023-07-22T03:37:45;100199.63;;;15.74;98.28
54854;BME280;40747;49.480;8.658;2023-07-22T03:40:11;100198.94;;;15.54;100.00
54854;BME280;40747;49.480;8.658;2023-07-22T03:42:40;100200.03;;;15.50;100.00
54854;BME280;40747;49.480;8.658;2023-07-22T03:45:07;100189.31;;;15.52;100.00
54854;BME280;40747;49.480;8.658;2023-07-22T03:47:33;100177.38;;;15.61;100.00
54854;BME280;40747;49.480;8.658;2023-07-22T03:49:58;100155.84;;;15.49;100.00
54854;BME280;40747;49.480;8.658;2023-07-22T03:52:24;100178.22;;;15.61;100.00
54854;BME280;40747;49.480;8.658;2023-07-22T03:54:49;100173.63;;;15.47;100.00
54854;BME280;40747;49.480;8.658;2023-07-22T03:57:14;100177.88;;;15.51;100.00
54854;BME280;40747;49.480;8.658;2023-07-22T03:59:40;100180.00;;;15.61;100.00
54854;BME280;40747;49.480;8.658;2023-07-22T04:02:05;100191.06;;;15.69;100.00
54854;BME280;40747;49.480;8.658;2023-07-22T04:04:31;100192.47;;;15.76;100.00
54854;BME280;40747;49.480;8.658;2023-07-22T04:06:56;100206.59;;;15.77;100.00
54854;BME280;40747;49.480;8.658;2023-07-22T04:09:21;100205.63;;;15.62;100.00
54854;BME280;40747;49.480;8.658;2023-07-22T04:11:46;100204.41;;;15.51;100.00
54854;BME280;40747;49.480;8.658;2023-07-22T04:14:12;100204.22;;;15.54;100.00
54854;BME280;40747;49.480;8.658;2023-07-22T04:16:38;100210.47;;;15.53;100.00
54854;BME280;40747;49.480;8.658;2023-07-22T04:19:03;100207.41;;;15.61;100.00
54854;BME280;40747;49.480;8.658;2023-07-22T04:21:28;100206.75;;;15.73;100.00
54854;BME280;40747;49.480;8.658;2023-07-22T04:23:54;100207.47;;;15.77;100.00
54854;BME280;40747;49.480;8.658;2023-07-22T04:26:19;100204.94;;;15.74;100.00
54854;BME280;40747;49.480;8.658;2023-07-22T04:28:45;100208.00;;;15.84;99.27
54854;BME280;40747;49.480;8.658;2023-07-22T04:31:10;100210.44;;;15.71;100.00
54854;BME280;40747;49.480;8.658;2023-07-22T04:33:36;100207.25;;;15.64;100.00
54854;BME280;40747;49.480;8.658;2023-07-22T04:36:01;100201.69;;;15.69;100.00
54854;BME280;40747;49.480;8.658;2023-07-22T04:38:26;100215.94;;;15.68;100.00
54854;BME280;40747;49.480;8.658;2023-07-22T04:40:52;100207.50;;;15.60;100.00
54854;BME280;40747;49.480;8.658;2023-07-22T04:43:17;100199.03;;;15.69;100.00
54854;BME280;40747;49.480;8.658;2023-07-22T04:45:45;100199.81;;;15.71;100.00
54854;BME280;40747;49.480;8.658;2023-07-22T04:48:15;100195.09;;;15.60;100.00
54854;BME280;40747;49.480;8.658;2023-07-22T04:50:41;100184.25;;;15.47;100.00
54854;BME280;40747;49.480;8.658;2023-07-22T04:53:09;100193.19;;;15.46;100.00
54854;BME280;40747;49.480;8.658;2023-07-22T04:55:35;100192.59;;;15.57;100.00
54854;BME280;40747;49.480;8.658;2023-07-22T04:58:00;100184.03;;;15.52;100.00
54854;BME280;40747;49.480;8.658;2023-07-22T05:00:25;100196.03;;;15.59;100.00
54854;BME280;40747;49.480;8.658;2023-07-22T05:02:51;100194.59;;;15.69;100.00
54854;BME280;40747;49.480;8.658;2023-07-22T05:05:17;100192.97;;;15.67;100.00
54854;BME280;40747;49.480;8.658;2023-07-22T05:07:43;100205.56;;;15.79;100.00
54854;BME280;40747;49.480;8.658;2023-07-22T05:10:10;100202.72;;;15.66;100.00
54854;BME280;40747;49.480;8.658;2023-07-22T05:12:41;100201.78;;;15.67;100.00
54854;BME280;40747;49.480;8.658;2023-07-22T05:15:07;100206.66;;;15.59;100.00
54854;BME280;40747;49.480;8.658;2023-07-22T05:17:33;100190.97;;;15.54;100.00
54854;BME280;40747;49.480;8.658;2023-07-22T05:19:58;100209.19;;;15.78;100.00
54854;BME280;40747;49.480;8.658;2023-07-22T05:22:24;100207.28;;;15.80;100.00
54854;BME280;40747;49.480;8.658;2023-07-22T05:24:49;100208.53;;;15.91;100.00
54854;BME280;40747;49.480;8.658;2023-07-22T05:27:16;100219.31;;;15.87;100.00
54854;BME280;40747;49.480;8.658;2023-07-22T05:29:41;100213.63;;;15.78;100.00
54854;BME280;40747;49.480;8.658;2023-07-22T05:32:07;100213.41;;;15.82;100.00
54854;BME280;40747;49.480;8.658;2023-07-22T05:34:33;100208.88;;;15.84;100.00
54854;BME280;40747;49.480;8.658;2023-07-22T05:36:58;100214.44;;;15.96;100.00
54854;BME280;40747;49.480;8.658;2023-07-22T05:39:23;100210.16;;;15.93;100.00
54854;BME280;40747;49.480;8.658;2023-07-22T05:41:49;100211.53;;;16.00;100.00
54854;BME280;40747;49.480;8.658;2023-07-22T05:44:14;100207.06;;;16.01;99.73
54854;BME280;40747;49.480;8.658;2023-07-22T05:46:39;100229.13;;;16.19;100.00
54854;BME280;40747;49.480;8.658;2023-07-22T05:49:05;100230.16;;;16.32;100.00
54854;BME280;40747;49.480;8.658;2023-07-22T05:51:30;100221.56;;;16.43;100.00
54854;BME280;40747;49.480;8.658;2023-07-22T05:53:55;100229.28;;;16.64;100.00
54854;BME280;40747;49.480;8.658;2023-07-22T05:56:21;100228.53;;;16.76;99.58
54854;BME280;40747;49.480;8.658;2023-07-22T05:58:46;100225.78;;;16.94;98.27
54854;BME280;40747;49.480;8.658;2023-07-22T06:01:11;100219.19;;;17.01;97.62
54854;BME280;40747;49.480;8.658;2023-07-22T06:03:37;100218.91;;;16.90;97.64
54854;BME280;40747;49.480;8.658;2023-07-22T06:06:03;100216.88;;;16.95;97.59
54854;BME280;40747;49.480;8.658;2023-07-22T06:08:29;100219.69;;;16.92;97.50
54854;BME280;40747;49.480;8.658;2023-07-22T06:10:56;100214.00;;;16.98;96.83
54854;BME280;40747;49.480;8.658;2023-07-22T06:13:21;100232.88;;;17.09;96.98
54854;BME280;40747;49.480;8.658;2023-07-22T06:15:46;100221.31;;;17.25;95.03
54854;BME280;40747;49.480;8.658;2023-07-22T06:18:11;100221.72;;;17.33;94.55
54854;BME280;40747;49.480;8.658;2023-07-22T06:20:37;100232.75;;;17.41;94.17
54854;BME280;40747;49.480;8.658;2023-07-22T06:23:03;100203.19;;;17.46;93.81
54854;BME280;40747;49.480;8.658;2023-07-22T06:25:29;100228.28;;;17.85;94.61
54854;BME280;40747;49.480;8.658;2023-07-22T06:27:54;100233.63;;;17.99;93.41
54854;BME280;40747;49.480;8.658;2023-07-22T06:30:19;100237.13;;;18.14;89.92
54854;BME280;40747;49.480;8.658;2023-07-22T06:32:45;100242.78;;;18.37;90.16
54854;BME280;40747;49.480;8.658;2023-07-22T06:35:10;100240.56;;;18.58;89.22
54854;BME280;40747;49.480;8.658;2023-07-22T06:37:35;100246.78;;;18.72;89.04
54854;BME280;40747;49.480;8.658;2023-07-22T06:40:01;100244.47;;;18.80;87.35
54854;BME280;40747;49.480;8.658;2023-07-22T06:42:27;100248.53;;;18.86;87.36
54854;BME280;40747;49.480;8.658;2023-07-22T06:44:53;100244.22;;;18.70;86.18
54854;BME280;40747;49.480;8.658;2023-07-22T06:47:18;100261.63;;;18.76;86.78
54854;BME280;40747;49.480;8.658;2023-07-22T06:49:43;100255.44;;;18.75;86.33
54854;BME280;40747;49.480;8.658;2023-07-22T06:52:09;100252.78;;;18.75;86.95
54854;BME280;40747;49.480;8.658;2023-07-22T06:54:35;100261.78;;;18.60;87.83
54854;BME280;40747;49.480;8.658;2023-07-22T06:57:00;100265.78;;;18.67;87.86
54854;BME280;40747;49.480;8.658;2023-07-22T06:59:26;100259.59;;;18.79;86.45
54854;BME280;40747;49.480;8.658;2023-07-22T07:01:51;100266.97;;;18.76;85.85
54854;BME280;40747;49.480;8.658;2023-07-22T07:04:17;100256.16;;;18.64;87.29
54854;BME280;40747;49.480;8.658;2023-07-22T07:06:42;100265.97;;;18.64;85.29
54854;BME280;40747;49.480;8.658;2023-07-22T07:09:07;100266.13;;;18.48;84.37
54854;BME280;40747;49.480;8.658;2023-07-22T07:11:33;100265.63;;;18.56;84.25
54854;BME280;40747;49.480;8.658;2023-07-22T07:13:58;100271.41;;;18.62;84.82
54854;BME280;40747;49.480;8.658;2023-07-22T07:16:25;100271.91;;;18.55;85.33
54854;BME280;40747;49.480;8.658;2023-07-22T07:18:51;100266.56;;;18.55;86.08
54854;BME280;40747;49.480;8.658;2023-07-22T07:21:21;100272.63;;;18.57;84.69
54854;BME280;40747;49.480;8.658;2023-07-22T07:23:47;100277.75;;;18.74;84.44
54854;BME280;40747;49.480;8.658;2023-07-22T07:26:13;100271.22;;;18.78;84.04
54854;BME280;40747;49.480;8.658;2023-07-22T07:28:38;100276.56;;;18.93;84.12
54854;BME280;40747;49.480;8.658;2023-07-22T07:31:03;100279.41;;;18.90;82.22
54854;BME280;40747;49.480;8.658;2023-07-22T07:33:29;100268.22;;;18.97;81.86
54854;BME280;40747;49.480;8.658;2023-07-22T07:35:54;100284.53;;;19.20;80.67
54854;BME280;40747;49.480;8.658;2023-07-22T07:38:19;100282.84;;;19.32;79.42
54854;BME280;40747;49.480;8.658;2023-07-22T07:40:44;100273.69;;;19.62;79.92
54854;BME280;40747;49.480;8.658;2023-07-22T07:43:10;100272.41;;;19.93;77.19
54854;BME280;40747;49.480;8.658;2023-07-22T07:45:39;100272.28;;;20.21;77.34
54854;BME280;40747;49.480;8.658;2023-07-22T07:48:05;100281.78;;;20.25;76.92
54854;BME280;40747;49.480;8.658;2023-07-22T07:50:32;100284.69;;;20.09;75.31
54854;BME280;40747;49.480;8.658;2023-07-22T07:52:57;100285.03;;;19.65;76.59
54854;BME280;40747;49.480;8.658;2023-07-22T07:55:24;100282.88;;;19.58;76.56
54854;BME280;40747;49.480;8.658;2023-07-22T07:57:50;100279.03;;;19.75;75.40
54854;BME280;40747;49.480;8.658;2023-07-22T08:00:15;100276.59;;;19.97;74.65
54854;BME280;40747;49.480;8.658;2023-07-22T08:02:41;100280.50;;;20.18;75.32
54854;BME280;40747;49.480;8.658;2023-07-22T08:05:06;100276.47;;;20.12;74.00
54854;BME280;40747;49.480;8.658;2023-07-22T08:07:32;100273.22;;;20.20;74.51
54854;BME280;40747;49.480;8.658;2023-07-22T08:09:58;100278.97;;;20.26;73.55
54854;BME280;40747;49.480;8.658;2023-07-22T08:12:24;100272.41;;;20.43;74.99
54854;BME280;40747;49.480;8.658;2023-07-22T08:14:49;100272.72;;;20.52;73.30
54854;BME280;40747;49.480;8.658;2023-07-22T08:17:15;100270.75;;;20.67;75.00
54854;BME280;40747;49.480;8.658;2023-07-22T08:19:40;100280.16;;;20.72;72.15
54854;BME280;40747;49.480;8.658;2023-07-22T08:22:05;100281.31;;;20.68;71.86
54854;BME280;40747;49.480;8.658;2023-07-22T08:24:31;100281.28;;;20.81;73.25
54854;BME280;40747;49.480;8.658;2023-07-22T08:26:57;100285.50;;;20.97;72.56
54854;BME280;40747;49.480;8.658;2023-07-22T08:29:23;100275.03;;;20.93;74.01
54854;BME280;40747;49.480;8.658;2023-07-22T08:31:49;100274.47;;;21.01;71.03
54854;BME280;40747;49.480;8.658;2023-07-22T08:34:14;100276.47;;;21.22;71.46
54854;BME280;40747;49.480;8.658;2023-07-22T08:36:39;100272.50;;;21.03;71.90
54854;BME280;40747;49.480;8.658;2023-07-22T08:39:05;100254.41;;;20.83;72.11
54854;BME280;40747;49.480;8.658;2023-07-22T08:41:31;100266.50;;;20.88;71.11
54854;BME280;40747;49.480;8.658;2023-07-22T08:43:59;100275.47;;;21.11;71.98
54854;BME280;40747;49.480;8.658;2023-07-22T08:46:28;100274.91;;;21.31;69.96
54854;BME280;40747;49.480;8.658;2023-07-22T08:48:56;100269.47;;;21.43;71.48
54854;BME280;40747;49.480;8.658;2023-07-22T08:51:22;100264.22;;;21.53;70.68
54854;BME280;40747;49.480;8.658;2023-07-22T08:53:53;100259.75;;;21.54;70.03
54854;BME280;40747;49.480;8.658;2023-07-22T08:56:23;100262.72;;;21.85;68.59
54854;BME280;40747;49.480;8.658;2023-07-22T08:58:51;100256.72;;;22.26;68.91
54854;BME280;40747;49.480;8.658;2023-07-22T09:01:16;100267.31;;;22.28;66.86
54854;BME280;40747;49.480;8.658;2023-07-22T09:03:43;100272.91;;;22.25;68.44
54854;BME280;40747;49.480;8.658;2023-07-22T09:06:08;100258.31;;;22.29;66.44
54854;BME280;40747;49.480;8.658;2023-07-22T09:08:34;100255.50;;;22.42;66.24
54854;BME280;40747;49.480;8.658;2023-07-22T09:10:59;100251.44;;;22.59;64.48
54854;BME280;40747;49.480;8.658;2023-07-22T09:13:26;100248.59;;;23.26;65.26
54854;BME280;40747;49.480;8.658;2023-07-22T09:15:52;100254.63;;;23.60;63.71
54854;BME280;40747;49.480;8.658;2023-07-22T09:18:18;100242.06;;;23.70;61.29
54854;BME280;40747;49.480;8.658;2023-07-22T09:20:44;100254.69;;;23.80;63.74
54854;BME280;40747;49.480;8.658;2023-07-22T09:23:09;100242.75;;;23.94;61.96
54854;BME280;40747;49.480;8.658;2023-07-22T09:25:34;100248.63;;;23.78;62.45
54854;BME280;40747;49.480;8.658;2023-07-22T09:28:00;100242.13;;;23.90;60.34
54854;BME280;40747;49.480;8.658;2023-07-22T09:30:43;100235.75;;;24.22;61.00
54854;BME280;40747;49.480;8.658;2023-07-22T09:33:22;100240.44;;;24.20;60.09
54854;BME280;40747;49.480;8.658;2023-07-22T09:35:48;100234.09;;;24.31;59.05
54854;BME280;40747;49.480;8.658;2023-07-22T09:38:14;100242.13;;;24.72;57.78
54854;BME280;40747;49.480;8.658;2023-07-22T09:40:42;100240.56;;;24.79;58.54
54854;BME280;40747;49.480;8.658;2023-07-22T09:43:10;100231.88;;;25.24;57.19
54854;BME280;40747;49.480;8.658;2023-07-22T09:45:36;100221.56;;;25.67;55.65
54854;BME280;40747;49.480;8.658;2023-07-22T09:48:03;100220.38;;;26.17;55.27
54854;BME280;40747;49.480;8.658;2023-07-22T09:50:29;100210.88;;;26.59;54.35
54854;BME280;40747;49.480;8.658;2023-07-22T09:52:58;100207.28;;;27.12;51.89
54854;BME280;40747;49.480;8.658;2023-07-22T09:55:26;100208.41;;;27.54;50.49
54854;BME280;40747;49.480;8.658;2023-07-22T09:57:59;100211.72;;;27.66;49.30
54854;BME280;40747;49.480;8.658;2023-07-22T10:00:29;100216.94;;;28.02;48.53
54854;BME280;40747;49.480;8.658;2023-07-22T10:02:57;100209.31;;;27.63;49.08
54854;BME280;40747;49.480;8.658;2023-07-22T10:05:24;100204.00;;;27.27;49.47
54854;BME280;40747;49.480;8.658;2023-07-22T10:07:52;100208.84;;;26.61;50.21
54854;BME280;40747;49.480;8.658;2023-07-22T10:10:20;100206.75;;;27.09;50.58
54854;BME280;40747;49.480;8.658;2023-07-22T10:12:46;100208.91;;;27.50;49.09
54854;BME280;40747;49.480;8.658;2023-07-22T10:15:14;100189.91;;;25.97;51.24
54854;BME280;40747;49.480;8.658;2023-07-22T10:17:40;100200.78;;;25.87;53.35
54854;BME280;40747;49.480;8.658;2023-07-22T10:20:11;100194.53;;;25.77;54.58
54854;BME280;40747;49.480;8.658;2023-07-22T10:22:41;100190.75;;;25.70;54.64
54854;BME280;40747;49.480;8.658;2023-07-22T10:25:11;100191.72;;;25.78;55.47
54854;BME280;40747;49.480;8.658;2023-07-22T10:27:36;100187.75;;;25.73;52.68
54854;BME280;40747;49.480;8.658;2023-07-22T10:30:05;100189.16;;;25.77;52.33
54854;BME280;40747;49.480;8.658;2023-07-22T10:32:33;100186.38;;;25.59;53.38
54854;BME280;40747;49.480;8.658;2023-07-22T10:34:59;100187.88;;;25.43;52.96
54854;BME280;40747;49.480;8.658;2023-07-22T10:37:34;100186.78;;;25.36;53.63
54854;BME280;40747;49.480;8.658;2023-07-22T10:43:02;100172.09;;;25.48;53.92
54854;BME280;40747;49.480;8.658;2023-07-22T10:45:33;100178.38;;;25.29;53.54
54854;BME280;40747;49.480;8.658;2023-07-22T10:48:02;100179.69;;;25.15;51.97
54854;BME280;40747;49.480;8.658;2023-07-22T10:50:53;100173.19;;;24.98;52.72
54854;BME280;40747;49.480;8.658;2023-07-22T11:06:29;100163.22;;;24.01;54.64
54854;BME280;40747;49.480;8.658;2023-07-22T11:08:55;100158.28;;;24.06;53.69
54854;BME280;40747;49.480;8.658;2023-07-22T11:11:20;100150.47;;;23.93;53.94
54854;BME280;40747;49.480;8.658;2023-07-22T11:13:46;100161.94;;;24.05;53.00
54854;BME280;40747;49.480;8.658;2023-07-22T11:16:11;100161.59;;;23.79;53.64
54854;BME280;40747;49.480;8.658;2023-07-22T11:18:41;100163.72;;;23.44;55.46
54854;BME280;40747;49.480;8.658;2023-07-22T11:21:10;100161.78;;;23.56;54.93
54854;BME280;40747;49.480;8.658;2023-07-22T11:23:36;100149.84;;;23.39;55.12
54854;BME280;40747;49.480;8.658;2023-07-22T11:26:03;100145.44;;;23.38;55.80
54854;BME280;40747;49.480;8.658;2023-07-22T11:28:28;100143.94;;;23.24;56.28
54854;BME280;40747;49.480;8.658;2023-07-22T11:30:54;100149.84;;;23.18;55.50
54854;BME280;40747;49.480;8.658;2023-07-22T11:33:19;100148.34;;;23.56;54.38
54854;BME280;40747;49.480;8.658;2023-07-22T11:35:44;100146.16;;;23.81;53.24
54854;BME280;40747;49.480;8.658;2023-07-22T11:38:12;100146.94;;;23.62;54.08
54854;BME280;40747;49.480;8.658;2023-07-22T11:40:37;100137.19;;;23.70;54.15
54854;BME280;40747;49.480;8.658;2023-07-22T11:43:03;100134.94;;;23.76;53.63
54854;BME280;40747;49.480;8.658;2023-07-22T11:45:28;100135.22;;;23.72;55.24
54854;BME280;40747;49.480;8.658;2023-07-22T11:47:55;100128.59;;;23.77;55.21
54854;BME280;40747;49.480;8.658;2023-07-22T11:50:31;100140.44;;;23.64;53.81
54854;BME280;40747;49.480;8.658;2023-07-22T11:52:57;100132.06;;;23.58;55.21
54854;BME280;40747;49.480;8.658;2023-07-22T11:55:23;100133.97;;;23.77;55.88
54854;BME280;40747;49.480;8.658;2023-07-22T11:57:53;100120.19;;;24.11;54.18
54854;BME280;40747;49.480;8.658;2023-07-22T12:00:20;100117.34;;;24.91;54.23
54854;BME280;40747;49.480;8.658;2023-07-22T12:02:46;100111.53;;;25.43;52.85
54854;BME280;40747;49.480;8.658;2023-07-22T12:05:20;100102.63;;;25.88;50.35
54854;BME280;40747;49.480;8.658;2023-07-22T12:07:46;100105.59;;;25.67;51.66
54854;BME280;40747;49.480;8.658;2023-07-22T12:10:12;100113.00;;;25.27;52.09
54854;BME280;40747;49.480;8.658;2023-07-22T12:12:43;100103.41;;;25.05;52.98
54854;BME280;40747;49.480;8.658;2023-07-22T12:15:16;100111.59;;;25.23;52.10
54854;BME280;40747;49.480;8.658;2023-07-22T12:17:59;100098.66;;;25.37;50.29
54854;BME280;40747;49.480;8.658;2023-07-22T12:22:51;100105.06;;;25.81;49.63
54854;BME280;40747;49.480;8.658;2023-07-22T12:25:17;100099.69;;;26.09;51.25
54854;BME280;40747;49.480;8.658;2023-07-22T12:27:43;100094.31;;;26.36;48.97
54854;BME280;40747;49.480;8.658;2023-07-22T12:30:09;100095.50;;;26.51;48.93
54854;BME280;40747;49.480;8.658;2023-07-22T12:32:34;100090.19;;;26.67;48.21
54854;BME280;40747;49.480;8.658;2023-07-22T12:34:59;100083.34;;;26.99;48.26
54854;BME280;40747;49.480;8.658;2023-07-22T12:37:25;100082.41;;;27.09;48.05
54854;BME280;40747;49.480;8.658;2023-07-22T12:39:51;100084.31;;;26.90;48.01
54854;BME280;40747;49.480;8.658;2023-07-22T12:42:16;100077.56;;;26.68;46.97
54854;BME280;40747;49.480;8.658;2023-07-22T12:44:41;100077.03;;;26.64;47.25
54854;BME280;40747;49.480;8.658;2023-07-22T12:47:07;100075.94;;;26.13;47.77
54854;BME280;40747;49.480;8.658;2023-07-22T12:49:33;100072.91;;;26.16;47.72
54854;BME280;40747;49.480;8.658;2023-07-22T12:51:58;100070.13;;;26.26;47.45
54854;BME280;40747;49.480;8.658;2023-07-22T12:54:30;100069.16;;;26.53;46.41
54854;BME280;40747;49.480;8.658;2023-07-22T12:56:56;100059.69;;;26.49;47.06
54854;BME280;40747;49.480;8.658;2023-07-22T12:59:21;100063.13;;;26.77;45.94
54854;BME280;40747;49.480;8.658;2023-07-22T13:01:47;100057.28;;;27.17;46.04